< < Back
Terminal Aerodrome Forecast


Current Version              Previous Versions:   1  2  3  4  5  6  7  8  9  

Terminal Aerodrome Forecast

110
FTUS44 KBMX 241100
TAFANB
TAF
KANB 241133Z 2412/2512 23010KT 6SM BR BKN025
     FM241500 25010KT P6SM BKN040
     FM242300 28005KT P6SM SCT150=

Latest METAR

575
SAUS70 KWBC 242000 RRB
MTRANB
METAR KANB 241953Z AUTO 27013KT 10SM FEW049 23/09 A2981 RMK AO2 SLP090
T02280094


USA.gov is the U.S. government's official web portal to all federal, state and local government web resources and services.